Time;durP1;ratioP1;P1;durP2;ratioP2;P2;SDS_P1;SDS_P2;PMS_P1;PMS_P2;Temp;Humidity;BMP_temperature;BMP_pressure;BME280_temperature;BME280_humidity;BME280_pressure;Samples;Min_cycle;Max_cycle;Signal;HPM_P1;HPM_P2
2022/04/28 00:02:11;;;;;;;3.87;2.40;;;;;;;13.76;67.11;97123.00;4885996;29;20244;-86
2022/04/28 00:04:39;;;;;;;3.73;2.50;;;;;;;13.89;67.47;97133.53;4886327;29;20235;-86
2022/04/28 00:07:12;;;;;;;4.13;2.40;;;;;;;13.96;68.20;97158.28;4871663;29;20279;-86
2022/04/28 00:09:42;;;;;;;4.07;2.30;;;;;;;13.63;68.62;97155.00;4889419;29;20774;-86
2022/04/28 00:12:10;;;;;;;4.00;2.83;;;;;;;13.28;69.14;97125.72;4900083;29;20201;-86
2022/04/28 00:14:38;;;;;;;2.97;2.40;;;;;;;13.48;69.59;97155.84;4896295;29;20216;-85
2022/04/28 00:17:06;;;;;;;4.33;2.50;;;;;;;13.60;68.77;97150.78;4900398;29;20176;-86
2022/04/28 00:19:33;;;;;;;5.47;2.60;;;;;;;13.70;68.48;97143.31;4884460;29;20216;-91
2022/04/28 00:22:05;;;;;;;3.00;2.47;;;;;;;13.41;68.84;97115.50;4899585;29;20264;-86
2022/04/28 00:24:33;;;;;;;3.73;2.47;;;;;;;13.50;68.25;97122.75;4900797;29;20196;-86
2022/04/28 00:27:02;;;;;;;4.33;2.67;;;;;;;13.64;67.72;97123.66;4900057;29;20214;-86
2022/04/28 00:29:29;;;;;;;5.10;2.43;;;;;;;13.71;67.21;97116.34;4885229;29;20179;-87
2022/04/28 00:32:01;;;;;;;4.37;2.80;;;;;;;14.02;67.71;97152.72;4895143;29;20229;-87
2022/04/28 00:34:29;;;;;;;3.30;2.80;;;;;;;13.70;67.55;97146.75;4867479;29;20204;-86
2022/04/28 00:36:57;;;;;;;3.83;2.83;;;;;;;13.13;68.84;97100.56;4859009;29;20202;-86
2022/04/28 00:39:26;;;;;;;2.90;2.60;;;;;;;12.97;69.80;97107.50;4897760;29;20179;-86
2022/04/28 00:41:55;;;;;;;3.60;3.00;;;;;;;12.90;70.84;97125.16;4884994;29;20269;-86
2022/04/28 00:44:24;;;;;;;3.77;2.60;;;;;;;13.13;70.88;97138.75;4882362;29;20783;-85
2022/04/28 00:46:59;;;;;;;3.57;2.83;;;;;;;13.28;70.25;97141.34;4896438;29;20282;-86
2022/04/28 00:52:12;;;;;;;4.37;2.67;;;;;;;13.40;69.29;97129.41;4896324;29;20203;-85
2022/04/28 00:54:44;;;;;;;3.20;2.47;;;;;;;12.90;69.68;97052.38;4898211;29;20717;-85
2022/04/28 00:57:14;;;;;;;2.73;2.40;;;;;;;13.35;69.37;97115.84;4882274;29;20223;-85
2022/04/28 00:59:45;;;;;;;4.50;2.60;;;;;;;13.30;69.48;97126.50;4898106;29;20216;-85
2022/04/28 01:02:17;;;;;;;4.00;2.53;;;;;;;13.40;68.96;97132.84;4900894;29;20226;-86
2022/04/28 01:04:46;;;;;;;3.47;2.70;;;;;;;13.24;69.34;97125.97;4886990;29;20229;-84
2022/04/28 01:07:17;;;;;;;3.73;2.37;;;;;;;13.27;69.50;97137.03;4901215;29;20199;-85
2022/04/28 01:09:47;;;;;;;5.53;2.60;;;;;;;12.89;70.47;97100.13;4901279;29;20191;-83
2022/04/28 01:12:19;;;;;;;4.27;2.60;;;;;;;12.77;71.09;97098.19;4898358;29;20214;-85
2022/04/28 01:14:55;;;;;;;5.30;2.80;;;;;;;12.33;71.26;97050.31;4889941;29;20209;-85
2022/04/28 01:17:22;;;;;;;3.87;2.17;;;;;;;12.32;71.67;97098.00;4872126;29;20770;-85
2022/04/28 01:20:05;;;;;;;5.27;2.50;;;;;;;12.39;72.76;97119.28;4891359;29;20202;-86
2022/04/28 01:22:36;;;;;;;3.70;2.60;;;;;;;12.06;73.53;97133.06;4875113;29;20264;-86
2022/04/28 01:25:12;;;;;;;3.80;2.70;;;;;;;11.72;74.74;97111.47;4871478;29;20199;-86
2022/04/28 01:27:41;;;;;;;7.63;3.27;;;;;;;11.40;75.72;97111.22;4884405;29;20203;-87
2022/04/28 01:30:15;;;;;;;5.07;2.50;;;;;;;11.59;76.15;97128.50;4883143;29;20279;-86
2022/04/28 01:32:57;;;;;;;3.43;3.13;;;;;;;11.79;75.92;97144.81;4872212;29;20207;-86
2022/04/28 01:35:27;;;;;;;5.80;2.93;;;;;;;11.71;75.10;97094.19;4886385;29;20278;-86
2022/04/28 01:37:55;;;;;;;4.73;2.73;;;;;;;11.96;74.49;97141.38;4868974;29;20235;-86
2022/04/28 01:40:22;;;;;;;6.13;3.80;;;;;;;11.66;75.86;97109.13;4840050;29;20197;-85
2022/04/28 01:42:50;;;;;;;4.27;3.87;;;;;;;11.51;77.41;97134.06;4900532;29;20223;-85
2022/04/28 01:45:20;;;;;;;5.63;3.80;;;;;;;11.17;77.78;97098.50;4886205;29;20208;-86
2022/04/28 01:48:20;;;;;;;4.00;3.57;;;;;;;11.52;77.85;97140.09;4823998;29;20216;-86
2022/04/28 01:57:09;;;;;;;4.70;3.93;;;;;;;11.38;77.93;97130.34;4890507;29;20256;-85
2022/04/28 01:59:58;;;;;;;6.00;3.77;;;;;;;11.28;78.29;97122.19;4902957;29;20202;-89
2022/04/28 02:02:45;;;;;;;7.13;3.90;;;;;;;11.33;78.48;97135.75;4900976;29;20213;-86
2022/04/28 02:05:14;;;;;;;6.03;3.60;;;;;;;11.21;78.41;97128.56;4871565;29;20242;-86
2022/04/28 02:07:43;;;;;;;4.40;3.90;;;;;;;11.10;78.26;97091.94;4887296;29;20230;-85
2022/04/28 02:10:11;;;;;;;5.17;4.20;;;;;;;11.20;78.11;97087.16;4883989;29;20214;-85
2022/04/28 02:12:38;;;;;;;5.20;4.10;;;;;;;11.26;78.26;97102.41;4883832;29;20189;-86
2022/04/28 02:15:28;;;;;;;5.13;4.13;;;;;;;11.07;78.97;97076.53;4883240;29;20192;-85
2022/04/28 02:18:08;;;;;;;5.63;4.00;;;;;;;11.02;78.76;97077.66;4882103;29;20286;-85
2022/04/28 02:20:37;;;;;;;6.70;3.80;;;;;;;11.30;78.64;97078.88;4863265;29;20224;-86
2022/04/28 02:23:05;;;;;;;6.70;3.67;;;;;;;11.76;77.77;97087.88;4864048;29;20661;-85
2022/04/28 02:25:36;;;;;;;4.90;4.43;;;;;;;12.03;75.91;97083.06;4866333;29;20192;-86
2022/04/28 02:28:09;;;;;;;8.33;4.03;;;;;;;12.17;74.88;97086.63;4893439;29;20265;-86
2022/04/28 02:30:39;;;;;;;3.57;3.27;;;;;;;12.38;74.37;97102.03;4902159;29;20187;-86
2022/04/28 02:33:10;;;;;;;4.23;2.90;;;;;;;12.26;74.43;97119.09;4888396;29;20226;-85
2022/04/28 02:35:56;;;;;;;4.53;3.20;;;;;;;12.19;74.51;97094.34;4891719;29;20202;-86
2022/04/28 02:38:25;;;;;;;4.67;3.13;;;;;;;12.25;74.19;97102.66;4869273;29;20195;-86
2022/04/28 02:40:53;;;;;;;5.97;3.17;;;;;;;12.35;73.97;97097.81;4869207;29;20201;-85
2022/04/28 02:43:23;;;;;;;6.83;3.23;;;;;;;11.94;75.33;97097.34;4866816;29;20719;-86
2022/04/28 02:46:12;;;;;;;3.80;3.20;;;;;;;11.89;75.96;97108.88;4865446;29;20304;-86
2022/04/28 02:49:04;;;;;;;5.10;3.47;;;;;;;11.58;76.56;97087.91;4880934;29;20201;-86
2022/04/28 02:51:36;;;;;;;6.07;3.50;;;;;;;11.45;77.81;97088.53;4888497;29;20299;-89
2022/04/28 02:54:04;;;;;;;5.57;3.63;;;;;;;11.42;77.92;97088.66;4891617;29;20627;-87
2022/04/28 02:56:37;;;;;;;5.33;3.93;;;;;;;11.52;78.14;97116.75;4862900;29;20277;-86
2022/04/28 02:59:07;;;;;;;4.67;4.07;;;;;;;11.01;78.07;97039.69;4887406;29;20313;-86
2022/04/28 03:01:38;;;;;;;10.13;5.23;;;;;;;11.30;79.08;97112.59;4902863;29;20196;-86
2022/04/28 03:04:07;;;;;;;6.90;5.13;;;;;;;11.34;78.74;97121.03;4885963;29;20876;-85
2022/04/28 03:12:15;;;;;;;4.87;4.10;;;;;;;11.73;78.29;97134.72;4880000;29;20235;-85
2022/04/28 03:14:54;;;;;;;5.87;4.67;;;;;;;11.78;78.34;97116.34;4894938;29;20202;-86
2022/04/28 03:17:21;;;;;;;7.17;4.67;;;;;;;11.90;77.10;97124.38;4879953;29;20188;-90
2022/04/28 03:19:50;;;;;;;7.97;5.43;;;;;;;12.06;76.84;97116.63;4879910;29;20193;-86
2022/04/28 03:22:20;;;;;;;6.67;4.70;;;;;;;12.36;75.81;97140.22;4878817;29;20225;-87
2022/04/28 03:24:49;;;;;;;9.57;5.30;;;;;;;12.38;74.98;97134.03;4865879;29;20226;-87
2022/04/28 03:27:16;;;;;;;10.13;5.80;;;;;;;12.42;75.17;97127.75;4848055;29;20208;-85
2022/04/28 03:29:46;;;;;;;9.37;6.20;;;;;;;12.54;74.87;97144.47;4884438;29;20204;-88
2022/04/28 03:32:17;;;;;;;9.73;6.20;;;;;;;12.61;74.59;97145.84;4880274;29;20202;-91
2022/04/28 03:34:57;;;;;;;7.73;6.70;;;;;;;12.60;74.44;97139.78;4877834;29;20200;-86
2022/04/28 03:37:28;;;;;;;11.33;7.53;;;;;;;12.47;74.33;97128.34;4888097;29;20184;-86
2022/04/28 03:39:57;;;;;;;10.13;7.07;;;;;;;12.69;74.76;97146.28;4877706;29;20204;-86
2022/04/28 03:42:29;;;;;;;7.67;6.20;;;;;;;12.53;74.82;97151.41;4880628;29;20280;-84
2022/04/28 03:44:58;;;;;;;6.90;6.30;;;;;;;12.40;74.79;97127.00;4879413;29;20282;-84
2022/04/28 03:47:36;;;;;;;10.73;8.70;;;;;;;12.77;74.43;97163.16;4846953;29;20207;-83
2022/04/28 03:50:06;;;;;;;8.37;6.23;;;;;;;12.86;73.91;97162.66;4882518;29;20219;-86
2022/04/28 03:52:38;;;;;;;10.37;7.40;;;;;;;12.59;74.52;97152.88;4843367;29;20317;-86
2022/04/28 03:55:07;;;;;;;8.77;6.93;;;;;;;12.02;76.53;97143.66;4858843;29;20268;-84
2022/04/28 03:57:36;;;;;;;10.03;7.20;;;;;;;11.95;76.98;97150.09;4871165;29;20255;-89
2022/04/28 04:00:08;;;;;;;8.80;7.40;;;;;;;11.85;77.50;97156.66;4855991;29;20631;-89
2022/04/28 04:02:51;;;;;;;7.60;6.10;;;;;;;11.93;78.03;97177.88;4859115;29;20237;-89
2022/04/28 04:05:22;;;;;;;8.13;6.10;;;;;;;11.65;77.96;97159.31;4875472;29;20303;-84
2022/04/28 04:07:51;;;;;;;13.67;10.17;;;;;;;11.73;79.02;97185.75;4879675;29;20592;-86
2022/04/28 04:10:45;;;;;;;9.83;6.30;;;;;;;11.73;78.56;97167.59;4868517;29;20215;-83
2022/04/28 04:13:14;;;;;;;7.93;5.20;;;;;;;11.74;77.14;97145.94;4871753;29;20255;-86
2022/04/28 04:15:50;;;;;;;7.97;4.43;;;;;;;11.90;76.03;97172.81;4882344;29;20216;-85
2022/04/28 04:18:30;;;;;;;8.57;5.33;;;;;;;11.45;77.37;97145.56;4887693;29;20267;-88
2022/04/28 04:21:07;;;;;;;5.30;4.80;;;;;;;11.75;78.58;97202.94;4883983;29;20201;-87
2022/04/28 04:23:36;;;;;;;7.17;5.67;;;;;;;11.43;79.33;97167.28;4861400;29;20236;-84
2022/04/28 04:26:14;;;;;;;7.80;4.20;;;;;;;11.38;80.00;97188.25;4876765;29;20200;-85
2022/04/28 04:28:46;;;;;;;7.07;4.70;;;;;;;10.77;80.15;97087.47;4837171;29;20231;-84
2022/04/28 04:34:48;;;;;;;8.60;5.27;;;;;;;11.58;79.66;97194.25;4863239;29;20293;-83
2022/04/28 04:37:21;;;;;;;9.23;6.10;;;;;;;11.71;79.35;97187.59;4889320;29;20212;-84
2022/04/28 04:39:50;;;;;;;11.83;6.27;;;;;;;11.90;79.38;97209.16;4858991;29;20197;-85
2022/04/28 04:42:28;;;;;;;10.20;7.43;;;;;;;11.97;78.75;97208.78;4889775;29;20219;-86
2022/04/28 04:45:11;;;;;;;8.60;5.60;;;;;;;12.02;79.37;97211.16;4861163;29;20207;-85
2022/04/28 04:48:01;;;;;;;10.43;6.87;;;;;;;11.83;78.39;97158.50;4873973;29;20279;-85
2022/04/28 04:50:44;;;;;;;8.07;6.83;;;;;;;12.25;78.34;97190.94;4861917;29;20268;-85
2022/04/28 04:53:35;;;;;;;12.37;6.40;;;;;;;12.59;76.50;97199.63;4875500;29;20210;-84
2022/04/28 04:56:08;;;;;;;12.30;6.70;;;;;;;12.71;75.58;97197.25;4859837;29;20220;-85
2022/04/28 04:58:42;;;;;;;8.67;7.00;;;;;;;12.98;74.65;97210.56;4872888;29;20644;-84
2022/04/28 05:01:12;;;;;;;9.93;5.70;;;;;;;12.95;74.55;97195.13;4871762;29;20230;-86
2022/04/28 05:04:03;;;;;;;11.47;5.17;;;;;;;13.26;73.22;97213.41;4871156;29;20323;-85
2022/04/28 05:06:51;;;;;;;9.03;5.43;;;;;;;13.42;72.60;97218.59;4875025;29;20213;-84
2022/04/28 05:09:26;;;;;;;12.10;6.60;;;;;;;13.22;71.46;97167.69;4873524;29;20209;-85
2022/04/28 05:11:56;;;;;;;12.60;6.70;;;;;;;13.76;71.07;97228.88;4876038;29;20204;-85
2022/04/28 05:14:55;;;;;;;8.20;4.30;;;;;;;13.58;70.66;97203.88;4877313;29;20211;-86
2022/04/28 05:17:36;;;;;;;9.23;4.43;;;;;;;13.34;71.78;97228.59;4876059;29;20219;-85
2022/04/28 05:20:26;;;;;;;7.53;4.67;;;;;;;13.45;71.41;97236.66;4876082;29;20230;-85
2022/04/28 05:23:13;;;;;;;7.07;4.83;;;;;;;13.25;71.22;97190.09;4860858;29;20243;-85
2022/04/28 05:26:00;;;;;;;7.97;4.33;;;;;;;13.24;71.57;97214.41;4873006;29;20197;-85
2022/04/28 05:28:54;;;;;;;10.20;4.83;;;;;;;13.16;72.11;97211.38;4850346;29;20222;-85
2022/04/28 05:31:48;;;;;;;9.73;4.13;;;;;;;12.93;73.00;97195.19;4849875;29;20295;-86
2022/04/28 05:34:30;;;;;;;4.37;3.97;;;;;;;12.91;74.20;97224.78;4866627;29;20203;-86
2022/04/28 05:37:15;;;;;;;8.53;3.87;;;;;;;12.42;74.57;97139.91;4863670;29;20203;-86
2022/04/28 05:39:46;;;;;;;3.73;2.90;;;;;;;12.84;73.95;97210.41;4865376;29;20207;-84
2022/04/28 05:42:16;;;;;;;4.10;3.10;;;;;;;13.20;73.32;97216.34;4831287;29;20221;-86
2022/04/28 05:45:46;;;;;;;7.47;4.07;;;;;;;13.34;73.04;97234.63;4864030;29;20202;-85
2022/04/28 05:47:43;;;;;;;4.10;3.10;;;;;;;13.36;71.77;97224.16;4846117;29;20850;-86
2022/04/28 05:50:10;;;;;;;5.77;3.43;;;;;;;13.39;71.72;97224.00;4863081;29;20195;-84
2022/04/28 05:52:41;;;;;;;7.87;3.50;;;;;;;13.51;71.72;97218.97;4858316;29;20218;-85
2022/04/28 05:55:09;;;;;;;6.87;3.10;;;;;;;13.61;71.22;97232.31;4875031;29;20195;-86
2022/04/28 05:57:38;;;;;;;10.47;4.07;;;;;;;13.79;71.00;97245.16;4851692;29;20206;-85
2022/04/28 06:00:08;;;;;;;8.33;3.63;;;;;;;13.50;71.36;97196.47;4851545;29;20208;-85
2022/04/28 06:02:44;;;;;;;5.77;3.37;;;;;;;13.94;71.10;97253.03;4873441;29;20231;-85
2022/04/28 06:05:22;;;;;;;11.07;3.63;;;;;;;13.82;71.37;97245.00;4875058;29;20235;-86
2022/04/28 06:07:51;;;;;;;6.27;3.43;;;;;;;14.04;72.35;97249.00;4840989;29;20225;-85
2022/04/28 06:10:19;;;;;;;6.63;3.97;;;;;;;14.14;72.58;97260.56;4869712;29;20243;-86
2022/04/28 06:12:54;;;;;;;7.83;4.37;;;;;;;14.01;73.18;97250.03;4854880;29;20292;-84
2022/04/28 06:15:37;;;;;;;6.73;4.90;;;;;;;13.78;74.30;97253.91;4873064;29;20211;-85
2022/04/28 06:18:27;;;;;;;10.23;5.77;;;;;;;13.96;73.19;97267.66;4873944;29;20187;-85
2022/04/28 06:21:02;;;;;;;7.10;5.70;;;;;;;14.27;72.16;97267.63;4859636;29;20921;-85
2022/04/28 06:23:40;;;;;;;7.80;6.13;;;;;;;14.54;71.36;97260.88;4873377;29;20326;-85
2022/04/28 06:26:13;;;;;;;13.47;6.87;;;;;;;14.52;71.37;97259.28;4886648;29;20264;-84
2022/04/28 06:28:50;;;;;;;8.57;6.67;;;;;;;14.43;71.59;97262.38;4872143;29;20212;-85
2022/04/28 06:31:20;;;;;;;10.87;6.93;;;;;;;14.61;70.83;97256.13;4837959;29;20232;-84
2022/04/28 06:33:49;;;;;;;11.00;7.80;;;;;;;14.52;69.74;97210.59;4863982;29;20232;-84
2022/04/28 06:36:37;;;;;;;12.10;7.00;;;;;;;14.87;69.70;97252.84;4867231;29;20245;-86
2022/04/28 06:39:09;;;;;;;12.63;7.20;;;;;;;15.04;69.15;97265.72;4865944;29;20268;-86
2022/04/28 06:41:37;;;;;;;9.03;8.10;;;;;;;14.92;69.41;97273.44;4853365;29;20212;-85
2022/04/28 06:44:17;;;;;;;10.03;7.57;;;;;;;14.86;69.03;97268.56;4875107;29;20232;-84
2022/04/28 06:47:14;;;;;;;13.33;8.73;;;;;;;15.05;69.23;97274.34;4881848;29;20193;-85
2022/04/28 06:50:09;;;;;;;11.60;8.23;;;;;;;15.23;67.74;97274.09;4866792;29;20664;-85
2022/04/28 06:53:10;;;;;;;14.40;9.17;;;;;;;15.40;66.29;97242.59;4877764;29;20263;-84
2022/04/28 06:55:43;;;;;;;15.03;8.97;;;;;;;15.61;64.72;97265.72;4867368;29;20228;-86
2022/04/28 06:58:11;;;;;;;14.50;10.40;;;;;;;15.67;64.44;97260.97;4875466;29;20195;-85
2022/04/28 07:00:44;;;;;;;15.60;10.63;;;;;;;15.92;64.68;97261.09;4832701;29;20269;-85
2022/04/28 07:03:22;;;;;;;9.70;7.87;;;;;;;15.98;64.05;97258.09;4862675;29;20240;-85
2022/04/28 07:05:53;;;;;;;11.13;9.20;;;;;;;16.09;63.63;97237.31;4875644;29;20241;-85
2022/04/28 07:08:23;;;;;;;13.43;9.10;;;;;;;16.33;62.69;97281.97;4890090;29;20203;-84
2022/04/28 07:10:53;;;;;;;14.87;9.87;;;;;;;16.30;61.99;97248.16;4870705;29;20216;-85
2022/04/28 07:13:25;;;;;;;14.23;10.10;;;;;;;16.54;59.48;97251.00;4856105;29;20224;-85
2022/04/28 07:16:21;;;;;;;11.37;6.57;;;;;;;16.86;57.06;97268.00;4822351;29;20206;-86
2022/04/28 07:19:10;;;;;;;9.53;5.07;;;;;;;16.99;55.61;97272.31;4852293;29;20205;-85
2022/04/28 07:21:49;;;;;;;8.37;5.00;;;;;;;16.95;56.32;97265.63;4869394;29;20221;-86
2022/04/28 07:24:55;;;;;;;10.00;6.47;;;;;;;17.24;56.80;97284.56;4856135;29;20244;-84
2022/04/28 07:27:24;;;;;;;10.77;6.97;;;;;;;17.01;55.90;97209.41;4887420;29;20592;-86
2022/04/28 07:30:10;;;;;;;9.03;6.60;;;;;;;17.14;56.77;97241.66;4873674;29;20198;-86
2022/04/28 07:32:41;;;;;;;7.87;6.10;;;;;;;17.59;55.27;97245.50;4872303;29;20292;-83
2022/04/28 07:35:15;;;;;;;8.60;6.73;;;;;;;17.88;54.10;97286.19;4871609;29;20208;-85
2022/04/28 07:38:08;;;;;;;8.47;6.50;;;;;;;17.91;54.25;97266.81;4871521;29;20206;-87
2022/04/28 07:41:24;;;;;;;12.20;6.03;;;;;;;18.38;53.31;97287.81;4830438;29;20198;-86
2022/04/28 07:43:58;;;;;;;23.13;11.03;;;;;;;18.44;53.53;97288.22;4839081;29;20256;-85
2022/04/28 07:46:30;;;;;;;12.97;7.27;;;;;;;18.39;52.72;97285.06;4869137;29;20199;-85
2022/04/28 07:49:06;;;;;;;12.87;6.87;;;;;;;18.47;52.87;97288.00;4854478;29;20210;-85
2022/04/28 07:51:41;;;;;;;13.30;7.03;;;;;;;18.43;53.19;97283.06;4853955;29;20586;-86
2022/04/28 07:54:10;;;;;;;16.97;8.80;;;;;;;18.55;53.38;97269.06;4870183;29;20211;-84
2022/04/28 07:56:39;;;;;;;15.90;6.83;;;;;;;18.58;53.09;97248.72;4871280;29;20195;-85
2022/04/28 07:59:11;;;;;;;14.57;7.20;;;;;;;18.81;52.25;97280.25;4890954;29;20195;-86
2022/04/28 08:02:14;;;;;;;17.57;8.13;;;;;;;18.59;52.80;97239.03;4894607;29;20218;-86
2022/04/28 08:04:46;;;;;;;13.87;7.23;;;;;;;18.60;52.91;97251.22;4877811;29;20235;-85
2022/04/28 08:07:15;;;;;;;10.53;5.87;;;;;;;18.73;53.45;97277.38;4830764;29;20280;-85
2022/04/28 08:09:45;;;;;;;15.10;7.73;;;;;;;18.45;53.63;97247.94;4860428;29;20196;-85
2022/04/28 08:12:20;;;;;;;11.47;6.03;;;;;;;18.58;53.98;97253.09;4847256;29;20206;-86
2022/04/28 08:15:50;;;;;;;13.23;6.80;;;;;;;18.99;53.56;97290.22;4814247;29;20194;-85
2022/04/28 08:18:18;;;;;;;11.73;5.63;;;;;;;19.00;53.80;97265.63;4805130;29;20286;-86
2022/04/28 08:20:49;;;;;;;10.87;5.57;;;;;;;19.01;54.07;97264.69;4803600;29;20232;-86
2022/04/28 08:23:44;;;;;;;8.40;5.87;;;;;;;19.09;53.62;97274.59;4802685;29;20252;-85
2022/04/28 08:26:17;;;;;;;9.03;5.57;;;;;;;19.26;53.72;97277.63;4800365;29;20191;-86
2022/04/28 08:29:03;;;;;;;10.03;5.90;;;;;;;19.45;53.33;97291.03;4871493;29;20210;-86
2022/04/28 08:31:32;;;;;;;10.97;5.23;;;;;;;19.54;52.50;97260.59;4873946;29;20200;-87
2022/04/28 08:34:01;;;;;;;15.17;5.77;;;;;;;19.62;52.22;97262.63;4888867;29;20209;-85
2022/04/28 08:36:33;;;;;;;9.67;5.73;;;;;;;19.84;52.38;97278.38;4890010;29;20217;-86
2022/04/28 08:39:05;;;;;;;12.63;5.60;;;;;;;19.79;52.00;97259.50;4832066;29;20567;-86
2022/04/28 08:41:46;;;;;;;8.83;5.83;;;;;;;19.94;51.87;97284.56;4843905;29;20232;-85
2022/04/28 08:44:45;;;;;;;9.83;6.23;;;;;;;19.80;52.41;97276.94;4858972;29;20244;-86
2022/04/28 08:47:24;;;;;;;9.13;5.53;;;;;;;19.53;53.71;97279.09;4842514;29;20189;-86
2022/04/28 08:50:17;;;;;;;8.90;5.67;;;;;;;20.04;52.58;97275.00;4830975;29;20235;-85
2022/04/28 08:53:06;;;;;;;11.33;5.70;;;;;;;20.44;51.60;97273.50;4835147;29;20202;-85
2022/04/28 08:55:37;;;;;;;10.00;5.03;;;;;;;20.62;51.21;97272.00;4834764;29;20200;-85
2022/04/28 08:58:05;;;;;;;8.53;5.10;;;;;;;20.64;51.17;97272.72;4851337;29;20216;-84
2022/04/28 09:00:39;;;;;;;6.83;5.33;;;;;;;20.56;51.15;97235.66;4853964;29;20239;-86
2022/04/28 09:03:45;;;;;;;9.13;5.10;;;;;;;20.66;50.99;97247.09;4842217;29;20302;-85
2022/04/28 09:06:55;;;;;;;11.57;5.00;;;;;;;21.02;51.54;97270.38;4856398;29;20210;-86
2022/04/28 09:09:42;;;;;;;11.53;5.20;;;;;;;20.77;52.00;97277.78;4868117;29;20206;-85
2022/04/28 09:14:08;;;;;;;8.43;5.57;;;;;;;20.83;51.37;97238.63;4859629;29;20226;-85
2022/04/28 09:16:14;;;;;;;8.17;5.87;;;;;;;21.08;52.67;97262.94;4860650;29;20209;-85
2022/04/28 09:19:28;;;;;;;10.97;6.67;;;;;;;20.92;52.63;97269.44;4869958;29;20213;-85
2022/04/28 09:22:13;;;;;;;12.40;5.70;;;;;;;20.96;52.65;97264.75;4838272;29;20202;-85
2022/04/28 09:24:56;;;;;;;13.27;6.20;;;;;;;21.09;52.86;97265.44;4866561;29;20281;-86
2022/04/28 09:27:28;;;;;;;11.13;5.37;;;;;;;21.26;52.28;97256.94;4852129;29;20693;-89
2022/04/28 09:29:59;;;;;;;8.20;5.90;;;;;;;21.13;51.90;97227.34;4852677;29;20227;-86
2022/04/28 09:32:31;;;;;;;11.50;5.77;;;;;;;21.21;52.23;97259.13;4866322;29;20218;-86
2022/04/28 09:35:29;;;;;;;12.07;6.23;;;;;;;21.03;53.25;97244.88;4856513;29;20193;-85
2022/04/28 09:38:19;;;;;;;12.13;7.17;;;;;;;21.10;53.27;97261.00;4865232;29;20222;-85
2022/04/28 09:44:06;;;;;;;7.47;5.60;;;;;;;21.54;51.82;97255.41;4867438;29;20234;-85
2022/04/28 09:46:42;;;;;;;7.23;5.50;;;;;;;21.42;51.65;97254.66;4871917;29;20257;-86
2022/04/28 09:49:19;;;;;;;8.30;6.00;;;;;;;21.27;52.95;97250.69;4867677;29;20207;-86
2022/04/28 09:52:14;;;;;;;9.60;4.97;;;;;;;21.44;52.13;97252.75;4868148;29;20353;-86
2022/04/28 09:55:26;;;;;;;8.73;5.70;;;;;;;21.55;52.01;97254.44;4861886;29;20256;-85
2022/04/28 09:58:27;;;;;;;8.43;5.00;;;;;;;21.90;51.37;97251.41;4865364;29;20206;-86
2022/04/28 10:01:04;;;;;;;8.90;5.33;;;;;;;21.75;51.23;97259.66;4877016;29;20317;-86
2022/04/28 10:03:41;;;;;;;6.93;5.00;;;;;;;21.93;50.50;97249.34;4843065;29;20687;-86
2022/04/28 10:06:17;;;;;;;9.63;5.03;;;;;;;22.14;49.93;97239.53;4862242;29;20211;-85
2022/04/28 10:09:05;;;;;;;12.60;5.23;;;;;;;22.18;49.69;97243.56;4867504;29;20183;-85
2022/04/28 10:11:34;;;;;;;10.77;5.47;;;;;;;22.11;49.85;97229.28;4882903;29;20199;-86
2022/04/28 10:14:04;;;;;;;10.20;5.20;;;;;;;22.33;49.71;97260.69;4881492;29;20293;-84
2022/04/28 10:16:35;;;;;;;8.03;5.10;;;;;;;21.90;50.74;97239.06;4850748;29;20750;-86
2022/04/28 10:19:30;;;;;;;7.17;4.80;;;;;;;22.03;51.22;97247.56;4849129;29;20192;-85
2022/04/28 10:22:16;;;;;;;13.20;5.60;;;;;;;22.24;51.09;97243.00;4851326;29;20203;-86
2022/04/28 10:33:28;;;;;;;20.93;11.33;;;;;;;22.34;50.50;97251.78;4852232;29;20211;-83
2022/04/28 10:36:01;;;;;;;6.93;4.77;;;;;;;21.39;51.23;97209.31;4850808;29;20211;-85
2022/04/28 10:38:38;;;;;;;6.47;4.73;;;;;;;21.21;51.45;97229.31;4864138;29;20211;-85
2022/04/28 10:41:16;;;;;;;7.37;4.53;;;;;;;21.02;51.79;97235.31;4851120;29;20203;-84
2022/04/28 10:43:48;;;;;;;7.73;4.70;;;;;;;21.12;51.16;97201.13;4851905;29;20268;-86
2022/04/28 10:46:28;;;;;;;9.63;5.00;;;;;;;21.58;50.78;97226.03;4879827;29;20189;-84
2022/04/28 10:49:05;;;;;;;8.27;4.60;;;;;;;21.81;50.16;97229.28;4880283;29;20201;-85
2022/04/28 10:51:34;;;;;;;8.57;4.33;;;;;;;21.77;49.91;97212.91;4872795;29;20198;-85
2022/04/28 10:54:10;;;;;;;9.07;4.60;;;;;;;21.00;52.37;97216.97;4873139;29;20203;-87
2022/04/28 10:56:44;;;;;;;6.63;4.27;;;;;;;20.93;53.47;97223.75;4871455;29;20214;-86
2022/04/28 10:59:37;;;;;;;7.47;5.03;;;;;;;20.67;53.95;97217.16;4873228;29;20191;-83
2022/04/28 11:02:13;;;;;;;7.20;5.00;;;;;;;21.31;53.58;97217.84;4873877;29;20810;-85
2022/04/28 11:05:13;;;;;;;8.03;5.00;;;;;;;21.25;52.84;97196.47;4864299;29;20250;-86
2022/04/28 11:07:51;;;;;;;8.53;5.07;;;;;;;21.41;52.96;97215.28;4832960;29;20203;-86
2022/04/28 11:10:24;;;;;;;7.33;4.47;;;;;;;21.31;53.70;97220.50;4856977;29;20209;-86
2022/04/28 11:13:09;;;;;;;8.03;5.03;;;;;;;21.28;53.33;97214.66;4855860;29;20187;-86
2022/04/28 11:15:45;;;;;;;6.80;4.83;;;;;;;20.81;54.46;97200.22;4867812;29;20215;-87
2022/04/28 11:18:17;;;;;;;12.17;5.17;;;;;;;20.40;53.44;97176.53;4872521;29;20194;-85
2022/04/28 11:20:49;;;;;;;8.27;5.07;;;;;;;20.28;53.34;97137.13;4851319;29;20213;-85
2022/04/28 11:23:22;;;;;;;12.47;5.90;;;;;;;20.51;51.90;97197.50;4861930;29;20205;-86
2022/04/28 11:26:00;;;;;;;7.13;4.40;;;;;;;20.77;50.62;97218.06;4865424;29;20215;-85
2022/04/28 11:28:31;;;;;;;4.63;4.10;;;;;;;20.56;51.74;97204.09;4851197;29;20220;-86
2022/04/28 11:31:14;;;;;;;11.37;7.37;;;;;;;21.05;50.95;97227.16;4882878;29;20688;-85
2022/04/28 11:33:56;;;;;;;6.60;4.33;;;;;;;20.57;51.26;97168.06;4864387;29;20213;-84
2022/04/28 11:36:30;;;;;;;7.00;3.63;;;;;;;21.14;48.20;97207.94;4881119;29;20235;-85
2022/04/28 11:39:03;;;;;;;6.07;3.70;;;;;;;21.16;48.29;97206.03;4851643;29;20257;-86
2022/04/28 11:41:39;;;;;;;6.93;3.70;;;;;;;21.52;46.87;97209.91;4866345;29;20193;-85
2022/04/28 11:44:17;;;;;;;6.60;3.17;;;;;;;21.76;46.22;97207.78;4871400;29;20248;-86
2022/04/28 11:46:53;;;;;;;8.30;4.10;;;;;;;21.97;46.00;97219.09;4823242;29;20228;-87
2022/04/28 11:49:50;;;;;;;4.70;2.83;;;;;;;21.85;45.61;97205.19;4865281;29;20192;-86
2022/04/28 11:52:59;;;;;;;10.87;4.53;;;;;;;21.97;45.46;97211.16;4864426;29;20273;-86
2022/04/28 11:55:38;;;;;;;10.60;3.70;;;;;;;22.13;45.56;97193.03;4779012;30;20206;-86
2022/04/28 11:58:15;;;;;;;7.43;3.27;;;;;;;21.82;45.44;97179.06;4846024;29;20221;-85
2022/04/28 12:00:49;;;;;;;7.33;3.87;;;;;;;22.18;45.61;97206.63;4867907;29;20230;-85
2022/04/28 12:03:35;;;;;;;7.47;4.27;;;;;;;22.09;44.71;97167.88;4866951;29;20201;-85
2022/04/28 12:06:08;;;;;;;8.27;3.80;;;;;;;22.20;48.35;97170.38;4865943;29;20242;-85
2022/04/28 12:08:39;;;;;;;7.50;3.83;;;;;;;22.40;49.75;97187.88;4867887;29;20247;-87
2022/04/28 12:19:56;;;;;;;4.10;3.57;;;;;;;22.16;50.61;97194.53;4864383;29;20189;-86
2022/04/28 12:22:39;;;;;;;6.27;3.67;;;;;;;21.97;50.30;97168.16;4880369;29;20205;-86
2022/04/28 12:25:16;;;;;;;4.83;3.20;;;;;;;21.91;50.91;97205.63;4862590;29;20227;-84
2022/04/28 12:27:47;;;;;;;8.20;3.10;;;;;;;21.74;51.43;97188.63;4866894;29;20209;-85
2022/04/28 12:30:18;;;;;;;6.50;3.43;;;;;;;21.65;51.98;97199.97;4868260;29;20209;-86
2022/04/28 12:32:54;;;;;;;4.40;2.83;;;;;;;21.21;52.82;97184.53;4864916;29;20207;-85
2022/04/28 12:35:31;;;;;;;4.57;2.97;;;;;;;21.31;52.67;97201.22;4848787;29;20631;-86
2022/04/28 12:38:04;;;;;;;8.43;3.17;;;;;;;20.91;53.21;97203.75;4864689;29;20576;-88
2022/04/28 12:40:42;;;;;;;4.40;2.90;;;;;;;20.41;54.35;97178.19;4846561;29;20263;-86
2022/04/28 12:43:13;;;;;;;4.30;3.27;;;;;;;20.29;54.03;97182.69;4875449;29;20203;-84
2022/04/28 12:45:54;;;;;;;3.63;2.70;;;;;;;20.20;54.84;97183.41;4864905;29;20239;-86
2022/04/28 12:48:32;;;;;;;3.63;3.03;;;;;;;20.37;55.02;97200.44;4865704;29;20291;-86
2022/04/28 12:51:19;;;;;;;8.97;5.10;;;;;;;20.53;54.21;97193.78;4881907;29;20220;-86
2022/04/28 12:54:10;;;;;;;6.80;3.43;;;;;;;20.64;54.56;97201.66;4863390;29;20204;-85
2022/04/28 12:56:43;;;;;;;3.97;3.57;;;;;;;20.53;53.85;97199.06;4867092;29;20212;-86
2022/04/28 12:59:17;;;;;;;4.23;2.80;;;;;;;20.53;54.56;97187.69;4869888;29;20814;-86